createdAt,value
2023-03-13T00:01:02.496Z,5.20
2023-03-13T00:03:30.671Z,5.20
2023-03-13T00:06:00.338Z,5.20
2023-03-13T00:08:30.812Z,5.10
2023-03-13T00:10:59.422Z,5.10
2023-03-13T00:13:27.469Z,5.10
2023-03-13T00:16:01.926Z,5.10
2023-03-13T00:18:29.904Z,5.20
2023-03-13T00:21:03.340Z,5.30
2023-03-13T00:23:31.925Z,5.40
2023-03-13T00:26:00.887Z,5.30
2023-03-13T00:28:32.579Z,5.30
2023-03-13T00:31:05.557Z,5.30
2023-03-13T00:33:34.341Z,5.30
2023-03-13T00:36:05.496Z,5.30
2023-03-13T00:38:33.701Z,5.30
2023-03-13T00:41:02.994Z,5.20
2023-03-13T00:43:31.082Z,5.20
2023-03-13T00:45:59.456Z,5.20
2023-03-13T00:48:27.966Z,5.20
2023-03-13T00:50:56.208Z,5.20
2023-03-13T00:53:25.636Z,5.20
2023-03-13T00:55:55.631Z,5.20
2023-03-13T00:58:24.229Z,5.10
2023-03-13T01:00:52.446Z,5.00
2023-03-13T01:03:20.737Z,5.20
2023-03-13T01:05:57.345Z,5.10
2023-03-13T01:08:26.721Z,4.90
2023-03-13T01:10:59.719Z,5.00
2023-03-13T01:13:28.171Z,5.10
2023-03-13T01:15:56.173Z,5.20
2023-03-13T01:18:24.244Z,5.20
2023-03-13T01:20:52.274Z,5.20
2023-03-13T01:23:20.348Z,5.10
2023-03-13T01:25:49.597Z,5.20
2023-03-13T01:28:17.516Z,5.20
2023-03-13T01:30:45.452Z,5.10
2023-03-13T01:33:13.406Z,5.00
2023-03-13T01:35:41.647Z,5.10
2023-03-13T01:38:10.089Z,5.00
2023-03-13T01:40:41.885Z,5.10
2023-03-13T01:43:27.512Z,5.20
2023-03-13T01:46:01.599Z,5.10
2023-03-13T01:48:38.762Z,4.90
2023-03-13T01:51:10.247Z,4.80
2023-03-13T01:53:41.934Z,4.80
2023-03-13T01:56:14.627Z,4.70
2023-03-13T01:58:44.193Z,4.90
2023-03-13T02:01:13.945Z,4.90
2023-03-13T02:03:43.285Z,5.00
2023-03-13T02:06:11.961Z,5.00
2023-03-13T02:08:44.230Z,5.00
2023-03-13T02:11:22.889Z,4.90
2023-03-13T02:13:52.896Z,4.90
2023-03-13T02:16:21.881Z,5.00
2023-03-13T02:18:50.291Z,5.00
2023-03-13T02:21:26.261Z,5.10
2023-03-13T02:23:59.106Z,5.10
2023-03-13T02:26:28.472Z,5.10
2023-03-13T02:28:56.403Z,5.20
2023-03-13T02:31:24.513Z,5.10
2023-03-13T02:33:52.472Z,5.10
2023-03-13T02:36:21.038Z,4.90
2023-03-13T02:38:56.205Z,4.60
2023-03-13T02:41:25.566Z,4.30
2023-03-13T02:43:54.925Z,4.10
2023-03-13T02:46:23.085Z,4.10
2023-03-13T02:48:52.963Z,4.30
2023-03-13T02:51:26.444Z,4.20
2023-03-13T02:53:57.213Z,4.30
2023-03-13T02:56:27.989Z,4.40
2023-03-13T02:58:57.396Z,4.50
2023-03-13T03:01:25.326Z,4.60
2023-03-13T03:03:53.349Z,4.60
2023-03-13T03:06:21.327Z,4.30
2023-03-13T03:08:49.214Z,4.00
2023-03-13T03:11:17.220Z,4.00
2023-03-13T03:13:45.189Z,3.90
2023-03-13T03:16:18.546Z,4.00
2023-03-13T03:18:46.649Z,4.10
2023-03-13T03:21:14.860Z,4.20
2023-03-13T03:23:42.810Z,4.20
2023-03-13T03:26:10.968Z,4.20
2023-03-13T03:28:38.910Z,4.10
2023-03-13T03:31:07.312Z,4.20
2023-03-13T03:33:36.607Z,4.20
2023-03-13T03:36:07.430Z,4.20
2023-03-13T03:38:35.763Z,4.20
2023-03-13T03:41:03.741Z,4.30
2023-03-13T03:43:32.006Z,4.30
2023-03-13T03:46:00.175Z,4.20
2023-03-13T03:48:28.540Z,4.20
2023-03-13T03:50:57.946Z,3.90
2023-03-13T03:53:26.430Z,4.00
2023-03-13T03:55:54.320Z,4.00
2023-03-13T03:58:22.486Z,4.00
2023-03-13T04:00:50.655Z,3.90
2023-03-13T04:03:18.957Z,3.90
2023-03-13T04:05:46.907Z,3.80
2023-03-13T04:08:17.439Z,3.70
2023-03-13T04:10:45.318Z,3.70
2023-03-13T04:13:13.228Z,3.60
2023-03-13T04:15:41.719Z,3.50
2023-03-13T04:18:09.642Z,3.60
2023-03-13T04:20:38.008Z,3.40
2023-03-13T04:23:05.895Z,3.40
2023-03-13T04:25:35.165Z,3.50
2023-03-13T04:28:03.268Z,3.40
2023-03-13T04:30:31.291Z,3.40
2023-03-13T04:32:59.286Z,3.40
2023-03-13T04:35:27.368Z,3.50
2023-03-13T04:37:55.312Z,3.60
2023-03-13T04:40:23.263Z,3.70
2023-03-13T04:42:52.595Z,3.80
2023-03-13T04:45:20.536Z,3.60
2023-03-13T04:47:48.794Z,3.50
2023-03-13T04:50:17.422Z,3.60
2023-03-13T04:52:45.332Z,3.70
2023-03-13T04:55:13.346Z,3.60
2023-03-13T04:57:41.252Z,3.50
2023-03-13T05:00:11.964Z,3.50
2023-03-13T05:02:39.849Z,3.50
2023-03-13T05:05:08.178Z,3.50
2023-03-13T05:07:36.121Z,3.30
2023-03-13T05:10:04.291Z,3.30
2023-03-13T05:12:32.259Z,3.30
2023-03-13T05:15:00.425Z,3.10
2023-03-13T05:17:29.715Z,3.30
2023-03-13T05:19:57.691Z,3.30
2023-03-13T05:22:25.724Z,3.50
2023-03-13T05:24:54.128Z,3.60
2023-03-13T05:27:22.092Z,3.40
2023-03-13T05:29:50.028Z,3.30
2023-03-13T05:32:18.014Z,3.40
2023-03-13T05:34:47.407Z,3.30
2023-03-13T05:37:15.397Z,3.10
2023-03-13T05:39:43.380Z,3.00
2023-03-13T05:42:11.372Z,2.90
2023-03-13T05:44:39.319Z,2.90
2023-03-13T05:47:07.532Z,3.00
2023-03-13T05:49:35.448Z,3.00
2023-03-13T05:52:05.120Z,3.20
2023-03-13T05:54:33.015Z,3.40
2023-03-13T05:57:00.908Z,3.50
2023-03-13T05:59:28.825Z,3.60
2023-03-13T06:01:56.833Z,3.60
2023-03-13T06:04:25.493Z,3.50
2023-03-13T06:06:53.469Z,3.50
2023-03-13T06:09:22.932Z,3.40
2023-03-13T06:11:50.813Z,3.60
2023-03-13T06:14:19.039Z,3.70
2023-03-13T06:16:47.132Z,3.80
2023-03-13T06:19:15.346Z,4.00
2023-03-13T06:21:43.276Z,4.10
2023-03-13T06:24:11.335Z,4.20
2023-03-13T06:26:40.766Z,4.30
2023-03-13T06:29:08.816Z,4.50
2023-03-13T06:31:36.830Z,4.50
2023-03-13T06:34:04.892Z,4.60
2023-03-13T06:36:33.178Z,4.80
2023-03-13T06:39:01.175Z,4.70
2023-03-13T06:41:29.100Z,5.00
2023-03-13T06:43:58.517Z,4.90
2023-03-13T06:46:27.196Z,5.10
2023-03-13T06:48:55.196Z,5.10
2023-03-13T06:51:23.517Z,5.10
2023-03-13T06:53:52.317Z,5.20
2023-03-13T06:56:21.707Z,5.30
2023-03-13T06:58:50.617Z,5.40
2023-03-13T07:01:20.068Z,5.50
2023-03-13T07:03:49.189Z,5.40
2023-03-13T07:06:18.368Z,5.40
2023-03-13T07:08:46.379Z,5.40
2023-03-13T07:11:15.469Z,5.30
2023-03-13T07:13:43.586Z,5.40
2023-03-13T07:16:13.575Z,5.50
2023-03-13T07:18:44.525Z,5.70
2023-03-13T07:21:14.253Z,5.80
2023-03-13T07:23:42.609Z,6.10
2023-03-13T07:26:13.769Z,6.10
2023-03-13T07:28:42.178Z,6.10
2023-03-13T07:31:14.408Z,6.20
2023-03-13T07:33:44.857Z,6.30
2023-03-13T07:36:16.901Z,6.40
2023-03-13T07:38:48.341Z,6.50
2023-03-13T07:41:16.767Z,6.50
2023-03-13T07:43:44.677Z,6.70
2023-03-13T07:46:14.311Z,6.80
2023-03-13T07:48:44.666Z,6.80
2023-03-13T07:51:14.938Z,7.10
2023-03-13T07:53:43.055Z,7.20
2023-03-13T07:56:13.284Z,7.30
2023-03-13T07:58:42.637Z,7.30
2023-03-13T08:01:12.476Z,7.30
2023-03-13T08:03:40.932Z,7.40
2023-03-13T08:06:12.415Z,7.60
2023-03-13T08:08:41.049Z,7.50
2023-03-13T08:11:11.209Z,7.30
2023-03-13T08:13:39.611Z,7.50
2023-03-13T08:16:10.097Z,7.80
2023-03-13T08:18:39.734Z,7.90
2023-03-13T08:21:11.462Z,8.10
2023-03-13T08:23:40.080Z,8.00
2023-03-13T08:26:10.282Z,8.20
2023-03-13T08:28:38.844Z,8.50
2023-03-13T08:31:11.143Z,8.50
2023-03-13T08:33:39.500Z,8.50
2023-03-13T08:36:16.003Z,8.60
2023-03-13T08:38:46.956Z,8.50
2023-03-13T08:41:16.871Z,8.40
2023-03-13T08:43:45.288Z,8.20
2023-03-13T08:46:14.002Z,8.40
2023-03-13T08:48:43.108Z,8.40
2023-03-13T08:51:14.673Z,8.20
2023-03-13T08:53:45.005Z,8.20
2023-03-13T08:56:14.446Z,8.20
2023-03-13T08:58:43.159Z,8.30
2023-03-13T09:01:13.009Z,8.40
2023-03-13T09:03:41.970Z,8.50
2023-03-13T09:06:11.227Z,8.60
2023-03-13T09:08:41.738Z,8.60
2023-03-13T09:11:11.523Z,8.60
2023-03-13T09:13:42.001Z,8.70
2023-03-13T09:16:12.359Z,8.70
2023-03-13T09:18:40.874Z,8.70
2023-03-13T09:21:10.630Z,8.60
2023-03-13T09:23:40.240Z,8.80
2023-03-13T09:26:08.183Z,8.90
2023-03-13T09:28:36.430Z,8.90
2023-03-13T09:31:11.789Z,8.70
2023-03-13T09:33:40.101Z,8.90
2023-03-13T09:36:09.404Z,8.90
2023-03-13T09:38:37.990Z,8.80
2023-03-13T09:41:21.670Z,8.70
2023-03-13T09:43:54.634Z,8.70
2023-03-13T09:46:27.398Z,8.80
2023-03-13T09:49:00.831Z,8.90
2023-03-13T09:51:31.869Z,9.00
2023-03-13T09:54:05.085Z,9.00
2023-03-13T09:56:41.582Z,9.00
2023-03-13T09:59:17.798Z,8.80
2023-03-13T10:01:47.472Z,8.60
2023-03-13T10:04:29.266Z,8.40
2023-03-13T10:06:57.788Z,8.50
2023-03-13T10:09:30.600Z,8.40
2023-03-13T10:12:08.041Z,8.10
2023-03-13T10:14:45.012Z,8.20
2023-03-13T10:17:27.251Z,8.30
2023-03-13T10:20:00.759Z,8.40
2023-03-13T10:22:32.039Z,8.30
2023-03-13T10:25:03.937Z,8.20
2023-03-13T10:27:33.236Z,8.30
2023-03-13T10:30:01.272Z,8.50
2023-03-13T10:32:29.254Z,8.70
2023-03-13T10:34:58.908Z,8.90
2023-03-13T10:37:28.658Z,8.90
2023-03-13T10:40:12.100Z,9.10
2023-03-13T10:42:45.226Z,9.50
2023-03-13T10:45:18.470Z,9.40
2023-03-13T10:47:46.425Z,9.70
2023-03-13T10:50:20.283Z,9.80
2023-03-13T10:52:49.895Z,9.80
2023-03-13T10:55:20.624Z,9.90
2023-03-13T10:57:59.826Z,10.00
2023-03-13T11:00:35.497Z,9.90
2023-03-13T11:03:06.536Z,10.20
2023-03-13T11:05:40.041Z,9.90
2023-03-13T11:08:22.078Z,9.70
2023-03-13T11:11:01.593Z,9.70
2023-03-13T11:13:41.837Z,9.60
2023-03-13T11:16:19.744Z,9.50
2023-03-13T11:19:11.207Z,9.50
2023-03-13T11:21:44.998Z,9.50
2023-03-13T11:24:17.658Z,9.60
2023-03-13T11:27:04.192Z,9.80
2023-03-13T11:29:42.421Z,9.90
2023-03-13T11:32:21.057Z,10.10
2023-03-13T11:34:52.823Z,10.20
2023-03-13T11:37:23.665Z,10.10
2023-03-13T11:40:11.136Z,10.40
2023-03-13T11:43:01.166Z,10.70
2023-03-13T11:45:56.797Z,10.80
2023-03-13T11:48:38.844Z,11.00
2023-03-13T11:51:14.243Z,11.00
2023-03-13T11:54:10.482Z,11.00
2023-03-13T11:56:44.124Z,11.40
2023-03-13T11:59:32.471Z,11.90
2023-03-13T12:02:07.685Z,11.70
2023-03-13T12:04:42.265Z,11.50
2023-03-13T12:07:21.394Z,11.30
2023-03-13T12:09:55.413Z,11.40
2023-03-13T12:12:33.708Z,11.40
2023-03-13T12:15:08.883Z,11.40
2023-03-13T12:17:42.055Z,11.50
2023-03-13T12:20:18.333Z,11.70
2023-03-13T12:22:52.005Z,11.70
2023-03-13T12:25:24.789Z,12.00
2023-03-13T12:27:56.163Z,11.80
2023-03-13T12:30:32.646Z,12.10
2023-03-13T12:33:14.469Z,12.30
2023-03-13T12:35:47.185Z,12.20
2023-03-13T12:38:22.293Z,12.30
2023-03-13T12:41:01.513Z,12.30
2023-03-13T12:43:33.117Z,12.70
2023-03-13T12:46:22.862Z,12.60
2023-03-13T12:49:08.566Z,12.50
2023-03-13T12:51:48.214Z,13.10
2023-03-13T12:54:42.599Z,13.10
2023-03-13T12:57:25.238Z,13.10
2023-03-13T12:59:59.061Z,12.90
2023-03-13T13:02:30.439Z,12.70
2023-03-13T13:05:03.285Z,12.80
2023-03-13T13:07:33.482Z,12.70
2023-03-13T13:10:20.168Z,12.80
2023-03-13T13:13:08.913Z,13.10
2023-03-13T13:15:38.230Z,12.80
2023-03-13T13:18:25.575Z,12.60
2023-03-13T13:21:23.383Z,12.60
2023-03-13T13:23:54.155Z,12.60
2023-03-13T13:26:50.022Z,12.50
2023-03-13T13:29:58.012Z,12.40
2023-03-13T13:32:44.244Z,12.70
2023-03-13T13:35:27.719Z,12.80
2023-03-13T13:38:27.969Z,12.80
2023-03-13T13:41:22.460Z,12.70
2023-03-13T13:44:11.607Z,12.80
2023-03-13T13:46:46.102Z,12.50
2023-03-13T13:49:19.004Z,12.40
2023-03-13T13:52:38.549Z,12.30
2023-03-13T13:55:42.930Z,12.60
2023-03-13T13:58:19.620Z,12.80
2023-03-13T14:00:53.937Z,12.70
2023-03-13T14:03:24.199Z,12.70
2023-03-13T14:05:56.329Z,12.60
2023-03-13T14:08:29.742Z,12.60
2023-03-13T14:11:10.958Z,12.40
2023-03-13T14:13:39.154Z,12.40
2023-03-13T14:16:24.657Z,12.70
2023-03-13T14:18:53.989Z,12.50
2023-03-13T14:21:24.369Z,12.40
2023-03-13T14:23:52.820Z,12.40
2023-03-13T14:26:24.502Z,12.60
2023-03-13T14:28:54.317Z,12.70
2023-03-13T14:31:24.551Z,12.80
2023-03-13T14:33:55.797Z,12.60
2023-03-13T14:36:23.937Z,12.80
2023-03-13T14:38:56.947Z,12.50
2023-03-13T14:41:37.640Z,12.30
2023-03-13T14:44:08.516Z,12.50
2023-03-13T14:46:38.214Z,12.50
2023-03-13T14:49:16.873Z,12.70
2023-03-13T14:51:45.283Z,12.90
2023-03-13T14:54:27.688Z,12.80
2023-03-13T14:57:16.019Z,12.60
2023-03-13T14:59:44.628Z,12.40
2023-03-13T15:02:20.980Z,12.20
2023-03-13T15:04:52.859Z,12.20
2023-03-13T15:07:21.868Z,12.40
2023-03-13T15:09:51.077Z,12.20
2023-03-13T15:12:22.499Z,12.00
2023-03-13T15:14:52.354Z,11.90
2023-03-13T15:17:22.715Z,12.20
2023-03-13T15:19:52.496Z,12.20
2023-03-13T15:22:26.541Z,12.10
2023-03-13T15:25:05.595Z,12.00
2023-03-13T15:27:36.612Z,12.00
2023-03-13T15:30:05.946Z,12.30
2023-03-13T15:32:37.668Z,12.50
2023-03-13T15:35:22.336Z,12.60
2023-03-13T15:37:50.708Z,12.90
2023-03-13T15:40:19.628Z,12.90
2023-03-13T15:42:49.240Z,12.70
2023-03-13T15:45:17.505Z,12.60
2023-03-13T15:47:46.069Z,12.90
2023-03-13T15:50:16.013Z,13.20
2023-03-13T15:52:44.644Z,13.00
2023-03-13T15:55:13.437Z,13.00
2023-03-13T15:57:44.506Z,13.10
2023-03-13T16:00:22.525Z,12.90
2023-03-13T16:02:50.632Z,13.10
2023-03-13T16:05:19.297Z,13.20
2023-03-13T16:07:47.274Z,13.20
2023-03-13T16:10:18.904Z,13.20
2023-03-13T16:12:46.998Z,13.20
2023-03-13T16:15:16.445Z,12.90
2023-03-13T16:17:44.598Z,12.50
2023-03-13T16:20:16.974Z,12.20
2023-03-13T16:22:45.410Z,12.00
2023-03-13T16:25:14.101Z,11.80
2023-03-13T16:27:42.462Z,11.80
2023-03-13T16:30:20.226Z,11.70
2023-03-13T16:32:48.404Z,11.70
2023-03-13T16:35:16.591Z,11.60
2023-03-13T16:37:44.570Z,11.60
2023-03-13T16:40:17.209Z,11.50
2023-03-13T16:42:45.478Z,11.30
2023-03-13T16:45:14.450Z,11.10
2023-03-13T16:47:44.813Z,11.00
2023-03-13T16:50:22.159Z,10.90
2023-03-13T16:52:50.207Z,10.80
2023-03-13T16:55:18.537Z,10.70
2023-03-13T16:57:46.915Z,10.60
2023-03-13T17:00:17.918Z,10.60
2023-03-13T17:02:48.201Z,10.70
2023-03-13T17:05:17.816Z,10.70
2023-03-13T17:07:48.214Z,10.90
2023-03-13T17:10:21.671Z,10.70
2023-03-13T17:12:50.205Z,10.70
2023-03-13T17:15:21.557Z,10.20
2023-03-13T17:17:52.903Z,10.10
2023-03-13T17:20:23.520Z,10.00
2023-03-13T17:22:51.449Z,9.80
2023-03-13T17:25:19.825Z,9.70
2023-03-13T17:27:48.422Z,9.40
2023-03-13T17:30:21.472Z,9.30
2023-03-13T17:32:51.449Z,9.10
2023-03-13T17:35:20.842Z,9.10
2023-03-13T17:37:50.650Z,8.90
2023-03-13T17:40:20.716Z,8.90
2023-03-13T17:42:49.582Z,8.70
2023-03-13T17:45:18.450Z,8.60
2023-03-13T17:47:47.050Z,8.50
2023-03-13T17:50:19.491Z,8.40
2023-03-13T17:52:47.494Z,8.20
2023-03-13T17:55:15.884Z,8.20
2023-03-13T17:57:44.689Z,8.20
2023-03-13T18:00:21.176Z,8.30
2023-03-13T18:02:49.493Z,8.40
2023-03-13T18:05:19.301Z,8.00
2023-03-13T18:07:48.333Z,8.00
2023-03-13T18:10:19.275Z,8.00
2023-03-13T18:12:47.990Z,8.00
2023-03-13T18:15:16.410Z,8.00
2023-03-13T18:17:44.645Z,7.90
2023-03-13T18:20:19.392Z,7.90
2023-03-13T18:22:48.271Z,8.00
2023-03-13T18:25:16.989Z,8.00
2023-03-13T18:27:45.374Z,8.00
2023-03-13T18:30:19.144Z,7.90
2023-03-13T18:32:47.600Z,7.70
2023-03-13T18:35:19.207Z,7.70
2023-03-13T18:37:49.602Z,7.90
2023-03-13T18:40:20.308Z,7.90
2023-03-13T18:42:48.809Z,7.80
2023-03-13T18:45:18.125Z,7.60
2023-03-13T18:47:48.048Z,7.50
2023-03-13T18:50:26.665Z,7.50
2023-03-13T18:52:56.584Z,7.40
2023-03-13T18:55:26.471Z,7.30
2023-03-13T18:57:55.757Z,7.20
2023-03-13T19:00:26.461Z,6.90
2023-03-13T19:02:54.720Z,6.90
2023-03-13T19:05:24.936Z,6.80
2023-03-13T19:07:52.980Z,6.80
2023-03-13T19:10:24.509Z,6.70
2023-03-13T19:12:53.953Z,6.70
2023-03-13T19:15:24.460Z,6.70
2023-03-13T19:17:52.854Z,6.60
2023-03-13T19:20:24.126Z,6.70
2023-03-13T19:22:53.498Z,6.50
2023-03-13T19:25:22.386Z,6.30
2023-03-13T19:27:50.472Z,6.30
2023-03-13T19:30:19.439Z,6.50
2023-03-13T19:32:47.925Z,6.30
2023-03-13T19:35:18.661Z,6.30
2023-03-13T19:37:48.848Z,6.20
2023-03-13T19:40:20.606Z,6.10
2023-03-13T19:42:48.650Z,6.00
2023-03-13T19:45:19.685Z,6.00
2023-03-13T19:47:47.841Z,6.00
2023-03-13T19:50:27.478Z,6.00
2023-03-13T19:52:57.197Z,6.00
2023-03-13T19:55:25.351Z,5.90
2023-03-13T19:57:53.406Z,5.60
2023-03-13T20:00:24.322Z,5.40
2023-03-13T20:02:54.895Z,5.10
2023-03-13T20:05:23.127Z,5.10
2023-03-13T20:07:53.311Z,5.20
2023-03-13T20:10:23.191Z,5.20
2023-03-13T20:12:53.477Z,5.30
2023-03-13T20:15:21.527Z,5.20
2023-03-13T20:17:49.433Z,5.10
2023-03-13T20:20:18.145Z,5.10
2023-03-13T20:22:46.119Z,5.10
2023-03-13T20:25:15.544Z,5.10
2023-03-13T20:27:44.927Z,5.10
2023-03-13T20:30:13.434Z,4.90
2023-03-13T20:32:56.692Z,4.80
2023-03-13T20:35:26.820Z,4.60
2023-03-13T20:37:54.767Z,4.70
2023-03-13T20:40:22.963Z,4.70
2023-03-13T20:42:52.314Z,4.70
2023-03-13T20:45:20.275Z,4.70
2023-03-13T20:47:48.565Z,4.60
2023-03-13T20:50:19.264Z,4.40
2023-03-13T20:52:48.648Z,4.50
2023-03-13T20:55:17.277Z,4.40
2023-03-13T20:57:45.229Z,4.40
2023-03-13T21:00:15.401Z,4.40
2023-03-13T21:02:43.482Z,4.40
2023-03-13T21:05:11.458Z,4.30
2023-03-13T21:07:39.581Z,4.30
2023-03-13T21:10:08.777Z,4.40
2023-03-13T21:12:37.204Z,4.30
2023-03-13T21:15:06.184Z,4.40
2023-03-13T21:17:36.143Z,4.40
2023-03-13T21:20:08.280Z,4.40
2023-03-13T21:22:36.383Z,4.50
2023-03-13T21:25:05.400Z,4.60
2023-03-13T21:27:33.497Z,4.70
2023-03-13T21:30:01.548Z,4.70
2023-03-13T21:32:29.714Z,4.70
2023-03-13T21:34:59.193Z,4.70
2023-03-13T21:37:28.486Z,4.70
2023-03-13T21:39:56.875Z,4.80
2023-03-13T21:42:25.317Z,4.80
2023-03-13T21:44:53.843Z,4.80
2023-03-13T21:47:24.433Z,4.80
2023-03-13T21:49:52.583Z,4.60
2023-03-13T21:52:23.629Z,4.40
2023-03-13T21:54:51.561Z,4.10
2023-03-13T21:57:19.473Z,4.00
2023-03-13T21:59:47.362Z,3.90
2023-03-13T22:02:15.435Z,4.00
2023-03-13T22:04:43.474Z,4.00
2023-03-13T22:07:11.479Z,3.80
2023-03-13T22:09:41.066Z,3.90
2023-03-13T22:12:09.318Z,4.10
2023-03-13T22:14:37.403Z,4.20
2023-03-13T22:17:05.436Z,4.30
2023-03-13T22:19:34.280Z,4.50
2023-03-13T22:22:02.243Z,4.40
2023-03-13T22:24:30.108Z,4.40
2023-03-13T22:26:59.402Z,4.40
2023-03-13T22:29:30.660Z,4.40
2023-03-13T22:31:59.154Z,4.40
2023-03-13T22:34:27.322Z,4.50
2023-03-13T22:36:55.602Z,4.50
2023-03-13T22:39:23.667Z,4.40
2023-03-13T22:41:51.574Z,4.30
2023-03-13T22:44:21.723Z,4.20
2023-03-13T22:46:50.096Z,4.20
2023-03-13T22:49:17.990Z,4.30
2023-03-13T22:51:46.010Z,4.10
2023-03-13T22:54:14.165Z,4.10
2023-03-13T22:56:42.085Z,4.00
2023-03-13T22:59:10.134Z,3.90
2023-03-13T23:01:39.530Z,4.00
2023-03-13T23:04:07.689Z,4.10
2023-03-13T23:06:35.625Z,4.10
2023-03-13T23:09:03.508Z,4.10
2023-03-13T23:11:31.526Z,4.00
2023-03-13T23:13:59.784Z,4.00
2023-03-13T23:16:28.245Z,4.00
2023-03-13T23:18:57.571Z,4.00
2023-03-13T23:21:25.807Z,4.10
2023-03-13T23:23:55.234Z,4.00
2023-03-13T23:26:24.033Z,3.90
2023-03-13T23:28:52.113Z,4.00
2023-03-13T23:31:22.248Z,4.00
2023-03-13T23:33:50.694Z,4.00
2023-03-13T23:36:20.574Z,4.00
2023-03-13T23:38:50.788Z,4.00
2023-03-13T23:41:19.007Z,3.90
2023-03-13T23:43:47.002Z,4.00
2023-03-13T23:46:18.809Z,4.00
2023-03-13T23:48:46.977Z,3.80
2023-03-13T23:51:15.358Z,3.80
2023-03-13T23:53:45.102Z,3.80
2023-03-13T23:56:13.678Z,3.90
2023-03-13T23:58:42.714Z,3.90
